sensor_id;sensor_type;location;lat;lon;timestamp;pressure;altitude;pressure_sealevel;temperature;humidity
33781;BME280;20097;50.832;19.100;2023-02-20T00:01:34;98761.53;;;0.36;100.00
33781;BME280;20097;50.832;19.100;2023-02-20T00:06:38;98756.81;;;0.30;100.00
33781;BME280;20097;50.832;19.100;2023-02-20T00:11:46;98754.88;;;0.34;100.00
33781;BME280;20097;50.832;19.100;2023-02-20T00:16:51;98764.53;;;0.30;100.00
33781;BME280;20097;50.832;19.100;2023-02-20T00:21:56;98752.72;;;0.28;100.00
33781;BME280;20097;50.832;19.100;2023-02-20T00:27:02;98753.53;;;0.28;100.00
33781;BME280;20097;50.832;19.100;2023-02-20T00:32:07;98761.00;;;0.19;100.00
33781;BME280;20097;50.832;19.100;2023-02-20T00:37:11;98761.28;;;0.14;100.00
33781;BME280;20097;50.832;19.100;2023-02-20T00:42:17;98753.78;;;0.11;100.00
33781;BME280;20097;50.832;19.100;2023-02-20T00:47:22;98767.53;;;0.10;100.00
33781;BME280;20097;50.832;19.100;2023-02-20T00:52:26;98766.63;;;0.11;100.00
33781;BME280;20097;50.832;19.100;2023-02-20T00:57:32;98760.66;;;0.11;100.00
33781;BME280;20097;50.832;19.100;2023-02-20T01:02:36;98759.94;;;0.09;100.00
33781;BME280;20097;50.832;19.100;2023-02-20T01:07:40;98757.47;;;0.07;100.00
33781;BME280;20097;50.832;19.100;2023-02-20T01:12:47;98767.06;;;0.18;100.00
33781;BME280;20097;50.832;19.100;2023-02-20T01:17:51;98758.31;;;0.20;100.00
33781;BME280;20097;50.832;19.100;2023-02-20T01:22:55;98762.56;;;0.21;100.00
33781;BME280;20097;50.832;19.100;2023-02-20T01:28:01;98763.59;;;0.31;100.00
33781;BME280;20097;50.832;19.100;2023-02-20T01:33:06;98750.84;;;0.30;100.00
33781;BME280;20097;50.832;19.100;2023-02-20T01:38:11;98738.53;;;0.35;100.00
33781;BME280;20097;50.832;19.100;2023-02-20T01:43:19;98732.94;;;0.42;100.00
33781;BME280;20097;50.832;19.100;2023-02-20T01:48:25;98732.94;;;0.42;100.00
33781;BME280;20097;50.832;19.100;2023-02-20T01:53:30;98728.81;;;0.52;100.00
33781;BME280;20097;50.832;19.100;2023-02-20T01:58:40;98712.72;;;0.50;100.00
33781;BME280;20097;50.832;19.100;2023-02-20T02:03:49;98702.75;;;0.58;100.00
33781;BME280;20097;50.832;19.100;2023-02-20T02:09:00;98701.81;;;0.59;100.00
33781;BME280;20097;50.832;19.100;2023-02-20T02:14:08;98693.91;;;0.62;100.00
33781;BME280;20097;50.832;19.100;2023-02-20T02:19:31;98702.84;;;0.57;100.00
33781;BME280;20097;50.832;19.100;2023-02-20T02:25:24;98697.09;;;0.53;100.00
33781;BME280;20097;50.832;19.100;2023-02-20T02:31:17;98680.22;;;0.49;100.00
33781;BME280;20097;50.832;19.100;2023-02-20T02:36:40;98689.97;;;0.32;100.00
33781;BME280;20097;50.832;19.100;2023-02-20T02:41:55;98691.72;;;0.31;100.00
33781;BME280;20097;50.832;19.100;2023-02-20T02:47:10;98697.88;;;0.29;100.00
33781;BME280;20097;50.832;19.100;2023-02-20T02:52:18;98693.56;;;0.29;100.00
33781;BME280;20097;50.832;19.100;2023-02-20T02:57:37;98689.22;;;0.17;100.00
33781;BME280;20097;50.832;19.100;2023-02-20T03:02:49;98671.47;;;0.14;100.00
33781;BME280;20097;50.832;19.100;2023-02-20T03:07:58;98654.94;;;0.18;100.00
33781;BME280;20097;50.832;19.100;2023-02-20T03:13:04;98650.41;;;0.09;100.00
33781;BME280;20097;50.832;19.100;2023-02-20T03:18:16;98653.09;;;0.08;100.00
33781;BME280;20097;50.832;19.100;2023-02-20T03:23:28;98661.09;;;0.03;100.00
33781;BME280;20097;50.832;19.100;2023-02-20T03:28:41;98666.00;;;-0.07;100.00
33781;BME280;20097;50.832;19.100;2023-02-20T03:33:54;98675.53;;;-0.09;100.00
33781;BME280;20097;50.832;19.100;2023-02-20T03:39:24;98666.59;;;-0.03;100.00
33781;BME280;20097;50.832;19.100;2023-02-20T03:44:50;98654.69;;;-0.04;100.00
33781;BME280;20097;50.832;19.100;2023-02-20T03:49:55;98652.22;;;-0.06;100.00
33781;BME280;20097;50.832;19.100;2023-02-20T03:55:03;98641.97;;;-0.06;100.00
33781;BME280;20097;50.832;19.100;2023-02-20T04:00:12;98650.34;;;-0.16;100.00
33781;BME280;20097;50.832;19.100;2023-02-20T04:05:28;98640.47;;;-0.22;100.00
33781;BME280;20097;50.832;19.100;2023-02-20T04:10:42;98630.03;;;-0.19;100.00
33781;BME280;20097;50.832;19.100;2023-02-20T04:15:48;98635.34;;;-0.22;100.00
33781;BME280;20097;50.832;19.100;2023-02-20T04:20:55;98628.97;;;-0.29;100.00
33781;BME280;20097;50.832;19.100;2023-02-20T04:26:12;98627.53;;;-0.33;100.00
33781;BME280;20097;50.832;19.100;2023-02-20T04:31:21;98613.03;;;-0.34;100.00
33781;BME280;20097;50.832;19.100;2023-02-20T04:36:26;98614.22;;;-0.26;100.00
33781;BME280;20097;50.832;19.100;2023-02-20T04:41:35;98589.38;;;-0.25;100.00
33781;BME280;20097;50.832;19.100;2023-02-20T04:46:39;98589.09;;;-0.21;100.00
33781;BME280;20097;50.832;19.100;2023-02-20T04:51:44;98566.41;;;-0.14;100.00
33781;BME280;20097;50.832;19.100;2023-02-20T04:56:51;98554.84;;;-0.07;100.00
33781;BME280;20097;50.832;19.100;2023-02-20T05:01:56;98566.34;;;0.00;100.00
33781;BME280;20097;50.832;19.100;2023-02-20T05:07:03;98561.81;;;0.03;100.00
33781;BME280;20097;50.832;19.100;2023-02-20T05:12:08;98567.88;;;0.15;100.00
33781;BME280;20097;50.832;19.100;2023-02-20T05:17:13;98566.34;;;0.13;100.00
33781;BME280;20097;50.832;19.100;2023-02-20T05:22:17;98566.88;;;0.18;100.00
33781;BME280;20097;50.832;19.100;2023-02-20T05:27:24;98563.88;;;0.24;100.00
33781;BME280;20097;50.832;19.100;2023-02-20T05:32:30;98552.19;;;0.32;100.00
33781;BME280;20097;50.832;19.100;2023-02-20T05:37:35;98558.94;;;0.33;100.00
33781;BME280;20097;50.832;19.100;2023-02-20T05:42:41;98548.56;;;0.35;100.00
33781;BME280;20097;50.832;19.100;2023-02-20T05:47:46;98561.81;;;0.41;100.00
33781;BME280;20097;50.832;19.100;2023-02-20T05:52:51;98553.31;;;0.41;100.00
33781;BME280;20097;50.832;19.100;2023-02-20T05:57:56;98570.03;;;0.46;100.00
33781;BME280;20097;50.832;19.100;2023-02-20T06:03:01;98566.53;;;0.60;100.00
33781;BME280;20097;50.832;19.100;2023-02-20T06:08:06;98557.66;;;0.64;100.00
33781;BME280;20097;50.832;19.100;2023-02-20T06:13:12;98563.94;;;0.72;100.00
33781;BME280;20097;50.832;19.100;2023-02-20T06:18:16;98551.38;;;0.80;100.00
33781;BME280;20097;50.832;19.100;2023-02-20T06:23:20;98538.81;;;0.88;100.00
33781;BME280;20097;50.832;19.100;2023-02-20T06:28:26;98545.50;;;0.91;100.00
33781;BME280;20097;50.832;19.100;2023-02-20T06:33:30;98552.75;;;0.97;100.00
33781;BME280;20097;50.832;19.100;2023-02-20T06:38:35;98557.13;;;1.07;100.00
33781;BME280;20097;50.832;19.100;2023-02-20T06:43:42;98550.19;;;1.20;100.00
33781;BME280;20097;50.832;19.100;2023-02-20T06:48:48;98536.97;;;1.37;100.00
33781;BME280;20097;50.832;19.100;2023-02-20T06:53:53;98531.38;;;1.43;100.00
33781;BME280;20097;50.832;19.100;2023-02-20T06:59:00;98516.44;;;1.49;100.00
33781;BME280;20097;50.832;19.100;2023-02-20T07:04:14;98516.91;;;1.54;100.00
33781;BME280;20097;50.832;19.100;2023-02-20T07:09:19;98513.81;;;1.72;100.00
33781;BME280;20097;50.832;19.100;2023-02-20T07:14:25;98509.72;;;1.81;100.00
33781;BME280;20097;50.832;19.100;2023-02-20T07:19:29;98516.06;;;1.88;100.00
33781;BME280;20097;50.832;19.100;2023-02-20T07:24:33;98510.44;;;1.83;100.00
33781;BME280;20097;50.832;19.100;2023-02-20T07:29:40;98506.13;;;1.94;100.00
33781;BME280;20097;50.832;19.100;2023-02-20T07:34:45;98497.81;;;2.02;100.00
33781;BME280;20097;50.832;19.100;2023-02-20T07:40:06;98486.59;;;2.36;100.00
33781;BME280;20097;50.832;19.100;2023-02-20T07:45:12;98459.75;;;2.60;100.00
33781;BME280;20097;50.832;19.100;2023-02-20T07:50:17;98455.84;;;2.88;100.00
33781;BME280;20097;50.832;19.100;2023-02-20T07:55:22;98457.00;;;2.95;100.00
33781;BME280;20097;50.832;19.100;2023-02-20T08:00:28;98465.63;;;3.05;100.00
33781;BME280;20097;50.832;19.100;2023-02-20T08:05:32;98459.13;;;3.22;100.00
33781;BME280;20097;50.832;19.100;2023-02-20T08:10:51;98448.63;;;3.34;100.00
33781;BME280;20097;50.832;19.100;2023-02-20T08:16:11;98439.06;;;3.46;100.00
33781;BME280;20097;50.832;19.100;2023-02-20T08:21:16;98429.44;;;3.68;100.00
33781;BME280;20097;50.832;19.100;2023-02-20T08:26:21;98406.03;;;3.90;100.00
33781;BME280;20097;50.832;19.100;2023-02-20T08:31:26;98396.34;;;4.13;100.00
33781;BME280;20097;50.832;19.100;2023-02-20T08:36:34;98394.28;;;4.16;100.00
33781;BME280;20097;50.832;19.100;2023-02-20T08:41:43;98392.66;;;4.06;100.00
33781;BME280;20097;50.832;19.100;2023-02-20T08:46:50;98380.44;;;4.08;100.00
33781;BME280;20097;50.832;19.100;2023-02-20T08:51:55;98363.84;;;4.20;100.00
33781;BME280;20097;50.832;19.100;2023-02-20T08:57:00;98371.34;;;4.23;100.00
33781;BME280;20097;50.832;19.100;2023-02-20T09:02:07;98375.72;;;4.22;100.00
33781;BME280;20097;50.832;19.100;2023-02-20T09:07:12;98362.53;;;4.26;100.00
33781;BME280;20097;50.832;19.100;2023-02-20T09:12:18;98349.47;;;4.17;100.00
33781;BME280;20097;50.832;19.100;2023-02-20T09:17:24;98343.88;;;4.12;100.00
33781;BME280;20097;50.832;19.100;2023-02-20T09:22:28;98339.47;;;4.03;100.00
33781;BME280;20097;50.832;19.100;2023-02-20T09:27:32;98337.25;;;4.19;100.00
33781;BME280;20097;50.832;19.100;2023-02-20T09:32:38;98326.34;;;4.26;100.00
33781;BME280;20097;50.832;19.100;2023-02-20T09:37:42;98309.75;;;4.28;100.00
33781;BME280;20097;50.832;19.100;2023-02-20T09:43:06;98299.44;;;4.38;100.00
33781;BME280;20097;50.832;19.100;2023-02-20T09:48:30;98299.72;;;4.44;100.00
33781;BME280;20097;50.832;19.100;2023-02-20T09:53:49;98287.47;;;4.65;100.00
33781;BME280;20097;50.832;19.100;2023-02-20T09:59:01;98275.75;;;4.90;100.00
33781;BME280;20097;50.832;19.100;2023-02-20T10:04:12;98264.00;;;5.05;100.00
33781;BME280;20097;50.832;19.100;2023-02-20T10:09:19;98252.34;;;5.01;100.00
33781;BME280;20097;50.832;19.100;2023-02-20T10:14:42;98238.66;;;5.18;100.00
33781;BME280;20097;50.832;19.100;2023-02-20T10:19:58;98238.25;;;5.13;100.00
33781;BME280;20097;50.832;19.100;2023-02-20T10:25:13;98232.06;;;5.33;100.00
33781;BME280;20097;50.832;19.100;2023-02-20T10:30:30;98219.44;;;5.57;100.00
33781;BME280;20097;50.832;19.100;2023-02-20T10:35:41;98206.88;;;5.62;100.00
33781;BME280;20097;50.832;19.100;2023-02-20T10:40:51;98182.13;;;5.50;100.00
33781;BME280;20097;50.832;19.100;2023-02-20T10:46:06;98153.72;;;5.58;100.00
33781;BME280;20097;50.832;19.100;2023-02-20T10:51:20;98169.38;;;5.39;100.00
33781;BME280;20097;50.832;19.100;2023-02-20T10:56:36;98141.66;;;5.31;100.00
33781;BME280;20097;50.832;19.100;2023-02-20T11:01:42;98122.28;;;5.35;100.00
33781;BME280;20097;50.832;19.100;2023-02-20T11:06:55;98115.25;;;5.28;100.00
33781;BME280;20097;50.832;19.100;2023-02-20T11:12:02;98086.28;;;5.42;100.00
33781;BME280;20097;50.832;19.100;2023-02-20T11:17:09;98084.00;;;5.56;100.00
33781;BME280;20097;50.832;19.100;2023-02-20T11:22:39;98040.63;;;5.76;100.00
33781;BME280;20097;50.832;19.100;2023-02-20T11:27:46;98017.31;;;5.76;100.00
33781;BME280;20097;50.832;19.100;2023-02-20T11:33:01;98011.19;;;5.95;100.00
33781;BME280;20097;50.832;19.100;2023-02-20T11:38:33;98019.78;;;6.21;100.00
33781;BME280;20097;50.832;19.100;2023-02-20T11:43:40;98006.38;;;6.59;100.00
33781;BME280;20097;50.832;19.100;2023-02-20T11:49:08;97998.88;;;6.48;100.00
33781;BME280;20097;50.832;19.100;2023-02-20T11:54:18;97966.97;;;6.55;100.00
33781;BME280;20097;50.832;19.100;2023-02-20T11:59:35;97980.88;;;6.46;100.00
33781;BME280;20097;50.832;19.100;2023-02-20T12:04:40;97964.09;;;6.58;100.00
33781;BME280;20097;50.832;19.100;2023-02-20T12:09:49;97941.19;;;6.54;100.00
33781;BME280;20097;50.832;19.100;2023-02-20T12:14:55;97924.88;;;6.61;100.00
33781;BME280;20097;50.832;19.100;2023-02-20T12:20:04;97893.59;;;6.63;100.00
33781;BME280;20097;50.832;19.100;2023-02-20T12:25:24;97884.41;;;6.84;100.00
33781;BME280;20097;50.832;19.100;2023-02-20T12:30:47;97883.44;;;7.02;100.00
33781;BME280;20097;50.832;19.100;2023-02-20T12:35:59;97886.84;;;7.02;100.00
33781;BME280;20097;50.832;19.100;2023-02-20T12:41:26;97890.56;;;6.99;100.00
33781;BME280;20097;50.832;19.100;2023-02-20T12:46:39;97881.50;;;7.28;100.00
33781;BME280;20097;50.832;19.100;2023-02-20T12:51:51;97860.88;;;7.50;100.00
33781;BME280;20097;50.832;19.100;2023-02-20T12:57:06;97845.41;;;7.65;100.00
33781;BME280;20097;50.832;19.100;2023-02-20T13:02:23;97852.69;;;7.69;100.00
33781;BME280;20097;50.832;19.100;2023-02-20T13:07:46;97830.47;;;7.75;100.00
33781;BME280;20097;50.832;19.100;2023-02-20T13:12:54;97795.34;;;7.87;100.00
33781;BME280;20097;50.832;19.100;2023-02-20T13:18:05;97767.47;;;8.11;100.00
33781;BME280;20097;50.832;19.100;2023-02-20T13:23:32;97726.97;;;8.17;100.00
33781;BME280;20097;50.832;19.100;2023-02-20T13:28:40;97722.00;;;8.07;100.00
33781;BME280;20097;50.832;19.100;2023-02-20T13:33:51;97680.34;;;8.15;100.00
33781;BME280;20097;50.832;19.100;2023-02-20T13:39:45;97676.75;;;8.16;100.00
33781;BME280;20097;50.832;19.100;2023-02-20T13:44:51;97670.88;;;8.30;100.00
33781;BME280;20097;50.832;19.100;2023-02-20T13:49:56;97650.81;;;8.39;100.00
33781;BME280;20097;50.832;19.100;2023-02-20T13:55:12;97646.31;;;8.48;100.00
33781;BME280;20097;50.832;19.100;2023-02-20T14:00:28;97693.53;;;8.59;100.00
33781;BME280;20097;50.832;19.100;2023-02-20T14:05:36;97657.66;;;8.55;98.98
33781;BME280;20097;50.832;19.100;2023-02-20T14:10:41;97638.91;;;8.59;98.59
33781;BME280;20097;50.832;19.100;2023-02-20T14:15:54;97627.69;;;8.59;96.81
33781;BME280;20097;50.832;19.100;2023-02-20T14:21:08;97634.63;;;8.66;96.30
33781;BME280;20097;50.832;19.100;2023-02-20T14:26:23;97608.59;;;8.66;97.47
33781;BME280;20097;50.832;19.100;2023-02-20T14:31:33;97586.06;;;8.59;96.49
33781;BME280;20097;50.832;19.100;2023-02-20T14:36:57;97582.03;;;8.56;94.87
33781;BME280;20097;50.832;19.100;2023-02-20T14:42:09;97594.16;;;8.64;94.85
33781;BME280;20097;50.832;19.100;2023-02-20T14:47:18;97581.31;;;8.77;91.28
33781;BME280;20097;50.832;19.100;2023-02-20T14:52:24;97603.22;;;8.82;92.56
33781;BME280;20097;50.832;19.100;2023-02-20T14:57:30;97599.34;;;8.78;92.97
33781;BME280;20097;50.832;19.100;2023-02-20T15:02:36;97605.38;;;8.79;93.41
33781;BME280;20097;50.832;19.100;2023-02-20T15:07:44;97603.41;;;8.81;92.88
33781;BME280;20097;50.832;19.100;2023-02-20T15:12:55;97616.88;;;8.84;91.68
33781;BME280;20097;50.832;19.100;2023-02-20T15:18:10;97627.28;;;8.84;90.36
33781;BME280;20097;50.832;19.100;2023-02-20T15:23:27;97637.69;;;8.84;91.42
33781;BME280;20097;50.832;19.100;2023-02-20T15:28:31;97631.31;;;8.87;91.17
33781;BME280;20097;50.832;19.100;2023-02-20T15:33:39;97631.50;;;8.85;90.70
33781;BME280;20097;50.832;19.100;2023-02-20T15:38:44;97631.50;;;8.85;90.38
33781;BME280;20097;50.832;19.100;2023-02-20T15:43:48;97635.56;;;8.88;90.24
33781;BME280;20097;50.832;19.100;2023-02-20T15:48:55;97616.97;;;8.91;89.97
33781;BME280;20097;50.832;19.100;2023-02-20T15:53:59;97643.63;;;8.93;90.65
33781;BME280;20097;50.832;19.100;2023-02-20T15:59:06;97646.75;;;8.88;91.70
33781;BME280;20097;50.832;19.100;2023-02-20T16:04:16;97647.38;;;8.90;92.24
33781;BME280;20097;50.832;19.100;2023-02-20T16:09:21;97644.41;;;8.93;92.14
33781;BME280;20097;50.832;19.100;2023-02-20T16:14:25;97650.91;;;8.97;92.35
33781;BME280;20097;50.832;19.100;2023-02-20T16:19:31;97643.09;;;8.97;93.69
33781;BME280;20097;50.832;19.100;2023-02-20T16:24:45;97642.72;;;9.00;94.08
33781;BME280;20097;50.832;19.100;2023-02-20T16:29:50;97656.38;;;9.02;95.05
33781;BME280;20097;50.832;19.100;2023-02-20T16:34:58;97650.44;;;9.08;95.37
33781;BME280;20097;50.832;19.100;2023-02-20T16:40:03;97649.16;;;9.04;97.05
33781;BME280;20097;50.832;19.100;2023-02-20T16:45:13;97652.22;;;9.08;96.56
33781;BME280;20097;50.832;19.100;2023-02-20T16:50:22;97657.63;;;9.06;98.51
33781;BME280;20097;50.832;19.100;2023-02-20T16:55:31;97650.81;;;9.05;99.81
33781;BME280;20097;50.832;19.100;2023-02-20T17:00:37;97649.81;;;9.06;100.00
33781;BME280;20097;50.832;19.100;2023-02-20T17:05:59;97655.66;;;9.08;100.00
33781;BME280;20097;50.832;19.100;2023-02-20T17:11:03;97661.03;;;9.07;100.00
33781;BME280;20097;50.832;19.100;2023-02-20T17:16:08;97657.34;;;9.01;100.00
33781;BME280;20097;50.832;19.100;2023-02-20T17:21:18;97670.19;;;9.03;100.00
33781;BME280;20097;50.832;19.100;2023-02-20T17:26:22;97661.59;;;9.02;100.00
33781;BME280;20097;50.832;19.100;2023-02-20T17:31:28;97670.72;;;8.98;100.00
33781;BME280;20097;50.832;19.100;2023-02-20T17:36:34;97669.56;;;9.01;100.00
33781;BME280;20097;50.832;19.100;2023-02-20T17:41:39;97664.78;;;9.04;100.00
33781;BME280;20097;50.832;19.100;2023-02-20T17:46:44;97670.00;;;9.04;100.00
33781;BME280;20097;50.832;19.100;2023-02-20T17:51:54;97675.56;;;9.01;100.00
33781;BME280;20097;50.832;19.100;2023-02-20T17:57:00;97674.41;;;9.04;100.00
33781;BME280;20097;50.832;19.100;2023-02-20T18:02:05;97685.78;;;9.03;100.00
33781;BME280;20097;50.832;19.100;2023-02-20T18:07:13;97650.16;;;9.03;100.00
33781;BME280;20097;50.832;19.100;2023-02-20T18:12:19;97658.63;;;9.05;100.00
33781;BME280;20097;50.832;19.100;2023-02-20T18:17:25;97668.84;;;9.07;100.00
33781;BME280;20097;50.832;19.100;2023-02-20T18:22:31;97653.84;;;9.09;100.00
33781;BME280;20097;50.832;19.100;2023-02-20T18:27:35;97654.84;;;9.08;100.00
33781;BME280;20097;50.832;19.100;2023-02-20T18:32:40;97647.75;;;9.02;100.00
33781;BME280;20097;50.832;19.100;2023-02-20T18:37:46;97645.78;;;9.04;100.00
33781;BME280;20097;50.832;19.100;2023-02-20T18:42:50;97649.53;;;9.01;100.00
33781;BME280;20097;50.832;19.100;2023-02-20T18:47:55;97623.88;;;8.98;100.00
33781;BME280;20097;50.832;19.100;2023-02-20T18:53:00;97615.88;;;9.00;100.00
33781;BME280;20097;50.832;19.100;2023-02-20T18:58:05;97616.59;;;9.08;100.00
33781;BME280;20097;50.832;19.100;2023-02-20T19:03:10;97594.25;;;9.14;100.00
33781;BME280;20097;50.832;19.100;2023-02-20T19:08:15;97589.19;;;9.12;100.00
33781;BME280;20097;50.832;19.100;2023-02-20T19:13:19;97591.88;;;9.19;100.00
33781;BME280;20097;50.832;19.100;2023-02-20T19:18:24;97582.81;;;9.29;100.00
33781;BME280;20097;50.832;19.100;2023-02-20T19:23:30;97583.06;;;9.34;100.00
33781;BME280;20097;50.832;19.100;2023-02-20T19:28:34;97556.09;;;9.42;98.44
33781;BME280;20097;50.832;19.100;2023-02-20T19:33:39;97559.34;;;9.44;98.27
33781;BME280;20097;50.832;19.100;2023-02-20T19:38:45;97546.75;;;9.47;97.31
33781;BME280;20097;50.832;19.100;2023-02-20T19:43:50;97550.25;;;9.54;96.49
33781;BME280;20097;50.832;19.100;2023-02-20T19:48:57;97560.41;;;9.49;97.23
33781;BME280;20097;50.832;19.100;2023-02-20T19:54:03;97563.63;;;9.51;97.30
33781;BME280;20097;50.832;19.100;2023-02-20T19:59:07;97561.66;;;9.53;97.40
33781;BME280;20097;50.832;19.100;2023-02-20T20:04:11;97561.56;;;9.47;98.54
33781;BME280;20097;50.832;19.100;2023-02-20T20:09:21;97563.63;;;9.51;98.65
33781;BME280;20097;50.832;19.100;2023-02-20T20:14:38;97561.00;;;9.51;99.42
33781;BME280;20097;50.832;19.100;2023-02-20T20:19:42;97564.81;;;9.49;100.00
33781;BME280;20097;50.832;19.100;2023-02-20T20:25:02;97560.94;;;9.45;100.00
33781;BME280;20097;50.832;19.100;2023-02-20T20:30:20;97563.53;;;9.45;100.00
33781;BME280;20097;50.832;19.100;2023-02-20T20:35:26;97572.38;;;9.44;100.00
33781;BME280;20097;50.832;19.100;2023-02-20T20:40:33;97567.91;;;9.38;100.00
33781;BME280;20097;50.832;19.100;2023-02-20T20:45:37;97563.47;;;9.38;100.00
33781;BME280;20097;50.832;19.100;2023-02-20T20:50:41;97563.84;;;9.35;100.00
33781;BME280;20097;50.832;19.100;2023-02-20T20:55:47;97576.28;;;9.33;100.00
33781;BME280;20097;50.832;19.100;2023-02-20T21:00:52;97571.78;;;9.27;100.00
33781;BME280;20097;50.832;19.100;2023-02-20T21:05:56;97583.75;;;9.22;100.00
33781;BME280;20097;50.832;19.100;2023-02-20T21:18:30;97574.22;;;9.14;100.00
33781;BME280;20097;50.832;19.100;2023-02-20T21:31:31;97544.34;;;9.10;100.00
33781;BME280;20097;50.832;19.100;2023-02-20T21:36:38;97553.75;;;9.11;100.00
33781;BME280;20097;50.832;19.100;2023-02-20T21:41:44;97541.28;;;9.07;100.00
33781;BME280;20097;50.832;19.100;2023-02-20T21:47:08;97563.09;;;9.06;100.00
33781;BME280;20097;50.832;19.100;2023-02-20T21:52:15;97554.69;;;9.04;100.00
33781;BME280;20097;50.832;19.100;2023-02-20T21:57:20;97545.25;;;9.03;100.00
33781;BME280;20097;50.832;19.100;2023-02-20T22:02:28;97550.63;;;9.01;100.00
33781;BME280;20097;50.832;19.100;2023-02-20T22:07:33;97553.78;;;8.97;100.00
33781;BME280;20097;50.832;19.100;2023-02-20T22:12:55;97551.19;;;8.97;100.00
33781;BME280;20097;50.832;19.100;2023-02-20T22:18:17;97540.13;;;8.95;100.00
33781;BME280;20097;50.832;19.100;2023-02-20T22:23:40;97544.75;;;8.93;100.00
33781;BME280;20097;50.832;19.100;2023-02-20T22:29:03;97547.75;;;8.96;100.00
33781;BME280;20097;50.832;19.100;2023-02-20T22:34:25;97549.75;;;8.94;100.00
33781;BME280;20097;50.832;19.100;2023-02-20T22:39:48;97553.31;;;8.93;100.00
33781;BME280;20097;50.832;19.100;2023-02-20T22:45:10;97556.28;;;8.90;100.00
33781;BME280;20097;50.832;19.100;2023-02-20T22:50:32;97554.50;;;8.91;100.00
33781;BME280;20097;50.832;19.100;2023-02-20T22:55:55;97556.28;;;8.90;100.00
33781;BME280;20097;50.832;19.100;2023-02-20T23:01:17;97555.47;;;8.90;100.00
33781;BME280;20097;50.832;19.100;2023-02-20T23:06:39;97556.84;;;8.86;100.00
33781;BME280;20097;50.832;19.100;2023-02-20T23:12:02;97557.28;;;8.89;100.00
33781;BME280;20097;50.832;19.100;2023-02-20T23:17:25;97558.81;;;8.84;100.00
33781;BME280;20097;50.832;19.100;2023-02-20T23:22:47;97560.00;;;8.81;100.00
33781;BME280;20097;50.832;19.100;2023-02-20T23:28:10;97547.00;;;8.81;100.00
33781;BME280;20097;50.832;19.100;2023-02-20T23:33:39;97554.34;;;8.78;100.00
33781;BME280;20097;50.832;19.100;2023-02-20T23:39:01;97562.25;;;8.70;100.00
33781;BME280;20097;50.832;19.100;2023-02-20T23:44:24;97555.94;;;8.64;100.00
33781;BME280;20097;50.832;19.100;2023-02-20T23:49:46;97563.19;;;8.54;100.00
33781;BME280;20097;50.832;19.100;2023-02-20T23:55:08;97552.00;;;8.54;100.00
